createdAt,value
2024-05-09T00:01:01.063Z,18
2024-05-09T00:03:01.092Z,18.1
2024-05-09T00:04:01.181Z,18.1
2024-05-09T00:05:01.112Z,18
2024-05-09T00:06:01.252Z,18
2024-05-09T00:07:01.042Z,18
2024-05-09T00:08:01.278Z,18
2024-05-09T00:09:01.061Z,18
2024-05-09T00:10:01.016Z,18.1
2024-05-09T00:11:01.139Z,18
2024-05-09T00:13:01.034Z,18
2024-05-09T00:14:01.123Z,18
2024-05-09T00:15:01.084Z,18
2024-05-09T00:17:01.147Z,18.1
2024-05-09T00:18:01.603Z,18.1
2024-05-09T00:19:01.118Z,18.1
2024-05-09T00:20:01.128Z,18.1
2024-05-09T00:21:01.183Z,18.1
2024-05-09T00:22:01.146Z,18.1
2024-05-09T00:24:01.036Z,18
2024-05-09T00:25:01.046Z,18.1
2024-05-09T00:27:01.061Z,18.1
2024-05-09T00:28:01.042Z,18
2024-05-09T00:29:01.052Z,18.1
2024-05-09T00:30:01.039Z,18
2024-05-09T00:31:01.060Z,18.1
2024-05-09T00:32:01.323Z,18
2024-05-09T00:33:01.355Z,18.1
2024-05-09T00:34:01.444Z,18
2024-05-09T00:35:01.148Z,18
2024-05-09T00:36:01.021Z,18
2024-05-09T00:37:01.132Z,18
2024-05-09T00:39:01.023Z,18.1
2024-05-09T00:40:01.068Z,18
2024-05-09T00:41:01.120Z,18
2024-05-09T00:42:01.040Z,18
2024-05-09T00:43:01.138Z,18
2024-05-09T00:44:01.158Z,18
2024-05-09T00:46:01.081Z,17.9
2024-05-09T00:48:01.461Z,18
2024-05-09T00:50:01.114Z,17.9
2024-05-09T00:51:01.186Z,17.9
2024-05-09T00:52:01.089Z,17.9
2024-05-09T00:54:01.126Z,18
2024-05-09T00:55:01.043Z,17.9
2024-05-09T00:56:01.128Z,17.8
2024-05-09T00:57:01.084Z,17.8
2024-05-09T00:58:01.087Z,17.8
2024-05-09T00:59:01.163Z,17.9
2024-05-09T01:00:01.085Z,17.9
2024-05-09T01:01:01.112Z,17.9
2024-05-09T01:02:01.248Z,17.8
2024-05-09T01:04:01.234Z,17.5
2024-05-09T01:06:24.252Z,17.5
2024-05-09T01:06:24.475Z,17.6
2024-05-09T01:08:01.264Z,17.5
2024-05-09T01:10:01.055Z,17.5
2024-05-09T01:12:01.176Z,17.7
2024-05-09T01:14:01.157Z,17.8
2024-05-09T01:15:01.113Z,17.7
2024-05-09T01:16:01.071Z,17.8
2024-05-09T01:17:01.185Z,17.8
2024-05-09T01:19:01.161Z,17.9
2024-05-09T01:20:01.169Z,17.9
2024-05-09T01:21:01.205Z,17.9
2024-05-09T01:22:01.092Z,17.9
2024-05-09T01:23:01.151Z,17.9
2024-05-09T01:24:01.116Z,17.9
2024-05-09T01:25:01.099Z,17.9
2024-05-09T01:26:01.171Z,17.9
2024-05-09T01:28:01.117Z,17.9
2024-05-09T01:29:01.172Z,17.9
2024-05-09T01:31:01.081Z,17.9
2024-05-09T01:32:01.309Z,17.9
2024-05-09T01:34:01.224Z,17.9
2024-05-09T01:35:01.196Z,17.9
2024-05-09T01:36:01.132Z,17.9
2024-05-09T01:37:01.123Z,17.9
2024-05-09T01:39:01.150Z,17.9
2024-05-09T01:40:01.059Z,17.9
2024-05-09T01:41:01.144Z,17.9
2024-05-09T01:42:01.161Z,17.9
2024-05-09T01:43:01.108Z,17.9
2024-05-09T01:45:01.088Z,17.6
2024-05-09T01:46:01.065Z,17.7
2024-05-09T01:47:01.152Z,17.8
2024-05-09T01:48:01.780Z,17.8
2024-05-09T01:49:01.275Z,17.9
2024-05-09T01:50:01.332Z,17.8
2024-05-09T01:52:01.126Z,17.8
2024-05-09T01:53:01.244Z,17.9
2024-05-09T01:54:01.101Z,17.9
2024-05-09T01:56:01.138Z,17.9
2024-05-09T01:57:01.133Z,17.9
2024-05-09T01:59:01.196Z,17.8
2024-05-09T02:00:01.189Z,17.9
2024-05-09T02:01:01.169Z,17.9
2024-05-09T02:02:01.476Z,17.9
2024-05-09T02:03:01.447Z,17.9
2024-05-09T02:04:01.277Z,17.9
2024-05-09T02:05:01.261Z,17.9
2024-05-09T02:06:01.344Z,17.9
2024-05-09T02:07:01.150Z,17.9
2024-05-09T02:09:01.165Z,17.9
2024-05-09T02:10:01.121Z,17.9
2024-05-09T02:11:01.244Z,17.9
2024-05-09T02:12:01.376Z,17.9
2024-05-09T02:13:01.258Z,17.9
2024-05-09T02:15:01.113Z,17.9
2024-05-09T02:16:01.133Z,17.9
2024-05-09T02:17:01.171Z,17.8
2024-05-09T02:19:01.294Z,17.9
2024-05-09T02:21:01.319Z,17.9
2024-05-09T02:22:01.163Z,17.9
2024-05-09T02:23:01.213Z,17.8
2024-05-09T02:24:01.107Z,17.9
2024-05-09T02:25:01.271Z,17.9
2024-05-09T02:27:01.148Z,17.9
2024-05-09T02:28:01.165Z,17.8
2024-05-09T02:29:01.216Z,17.8
2024-05-09T02:30:01.134Z,17.9
2024-05-09T02:31:01.224Z,17.8
2024-05-09T02:32:01.343Z,17.8
2024-05-09T02:33:01.296Z,17.9
2024-05-09T02:34:01.487Z,17.8
2024-05-09T02:35:01.255Z,17.8
2024-05-09T02:36:01.134Z,17.8
2024-05-09T02:37:01.162Z,17.8
2024-05-09T02:38:01.315Z,17.8
2024-05-09T02:40:01.139Z,17.8
2024-05-09T02:41:01.223Z,17.9
2024-05-09T02:42:01.185Z,17.8
2024-05-09T02:44:01.215Z,17.8
2024-05-09T02:45:01.171Z,17.8
2024-05-09T02:47:01.206Z,17.8
2024-05-09T02:48:02.087Z,17.8
2024-05-09T02:49:01.380Z,17.9
2024-05-09T02:50:01.179Z,17.8
2024-05-09T02:51:01.195Z,17.8
2024-05-09T02:52:01.190Z,17.9
2024-05-09T02:53:01.389Z,17.8
2024-05-09T02:54:01.131Z,17.9
2024-05-09T02:55:01.147Z,17.9
2024-05-09T02:56:01.205Z,17.9
2024-05-09T02:57:01.168Z,17.8
2024-05-09T02:58:01.218Z,17.8
2024-05-09T02:59:01.223Z,17.9
2024-05-09T03:01:01.219Z,17.9
2024-05-09T03:02:01.395Z,17.9
2024-05-09T03:03:01.534Z,17.8
2024-05-09T03:05:01.216Z,17.8
2024-05-09T03:06:01.239Z,17.8
2024-05-09T03:08:01.276Z,17.9
2024-05-09T03:09:01.162Z,17.9
2024-05-09T03:11:01.338Z,17.8
2024-05-09T03:12:01.377Z,17.9
2024-05-09T03:13:01.221Z,17.9
2024-05-09T03:14:01.205Z,17.9
2024-05-09T03:15:01.170Z,17.9
2024-05-09T03:16:01.167Z,17.8
2024-05-09T03:17:01.238Z,17.9
2024-05-09T03:18:01.706Z,17.9
2024-05-09T03:20:01.185Z,17.8
2024-05-09T03:21:01.228Z,17.8
2024-05-09T03:22:01.172Z,17.9
2024-05-09T03:23:01.242Z,17.8
2024-05-09T03:24:01.194Z,17.8
2024-05-09T03:25:01.202Z,17.9
2024-05-09T03:26:01.376Z,17.8
2024-05-09T03:27:01.178Z,17.8
2024-05-09T03:28:01.289Z,17.9
2024-05-09T03:29:01.288Z,17.9
2024-05-09T03:30:01.182Z,17.8
2024-05-09T03:31:01.163Z,17.8
2024-05-09T03:33:01.359Z,17.9
2024-05-09T03:34:01.417Z,17.8
2024-05-09T03:36:01.147Z,17.8
2024-05-09T03:37:01.341Z,17.8
2024-05-09T03:39:01.165Z,17.8
2024-05-09T03:40:01.184Z,17.8
2024-05-09T03:41:01.297Z,17.8
2024-05-09T03:43:01.184Z,17.9
2024-05-09T03:44:01.246Z,17.9
2024-05-09T03:45:01.192Z,17.9
2024-05-09T03:46:01.258Z,17.8
2024-05-09T03:47:01.207Z,17.8
2024-05-09T03:48:01.435Z,17.8
2024-05-09T03:49:01.307Z,17.8
2024-05-09T03:50:01.226Z,17.8
2024-05-09T03:51:01.276Z,17.8
2024-05-09T03:53:01.548Z,17.8
2024-05-09T03:54:01.222Z,17.8
2024-05-09T03:55:01.185Z,17.8
2024-05-09T03:56:01.323Z,17.8
2024-05-09T03:57:01.209Z,17.8
2024-05-09T03:59:01.277Z,17.8
2024-05-09T04:00:01.193Z,17.8
2024-05-09T04:01:01.201Z,17.8
2024-05-09T04:02:01.309Z,17.8
2024-05-09T04:03:01.561Z,17.8
2024-05-09T04:04:01.263Z,17.8
2024-05-09T04:05:01.264Z,17.7
2024-05-09T04:06:01.255Z,17.8
2024-05-09T04:07:01.224Z,17.8
2024-05-09T04:09:01.196Z,17.8
2024-05-09T04:10:01.205Z,17.8
2024-05-09T04:12:01.382Z,17.9
2024-05-09T04:13:01.330Z,17.8
2024-05-09T04:14:01.267Z,17.7
2024-05-09T04:16:01.226Z,17.8
2024-05-09T04:17:01.216Z,17.8
2024-05-09T04:18:02.323Z,17.8
2024-05-09T04:20:01.384Z,17.8
2024-05-09T04:21:01.441Z,17.8
2024-05-09T04:22:01.212Z,17.8
2024-05-09T04:23:01.384Z,17.8
2024-05-09T04:24:01.254Z,17.8
2024-05-09T04:26:01.289Z,17.9
2024-05-09T04:27:01.218Z,17.8
2024-05-09T04:28:01.250Z,17.9
2024-05-09T04:30:01.215Z,17.9
2024-05-09T04:31:01.206Z,17.8
2024-05-09T04:32:01.324Z,17.9
2024-05-09T04:33:01.534Z,17.9
2024-05-09T04:34:01.366Z,17.9
2024-05-09T04:35:01.245Z,17.9
2024-05-09T04:36:01.230Z,17.9
2024-05-09T04:38:01.354Z,17.9
2024-05-09T04:39:01.295Z,18
2024-05-09T04:40:01.269Z,17.9
2024-05-09T04:41:01.260Z,18
2024-05-09T04:42:01.254Z,18
2024-05-09T04:43:01.278Z,17.9
2024-05-09T04:44:01.268Z,18
2024-05-09T04:45:01.260Z,17.9
2024-05-09T04:46:01.275Z,17.9
2024-05-09T04:48:02.090Z,17.9
2024-05-09T04:50:02.800Z,18
2024-05-09T04:52:01.242Z,18
2024-05-09T04:53:01.428Z,18
2024-05-09T04:55:01.230Z,18.1
2024-05-09T04:56:01.358Z,18
2024-05-09T04:57:01.226Z,18
2024-05-09T04:58:01.224Z,18
2024-05-09T04:59:01.310Z,18
2024-05-09T05:00:01.287Z,18
2024-05-09T05:02:01.388Z,18.1
2024-05-09T05:03:01.462Z,18
2024-05-09T05:05:01.467Z,18.1
2024-05-09T05:06:01.432Z,18.1
2024-05-09T05:07:02.905Z,18.1
2024-05-09T05:08:01.327Z,18
2024-05-09T05:09:01.269Z,18
2024-05-09T05:10:01.269Z,18.1
2024-05-09T05:11:01.312Z,18.1
2024-05-09T05:12:01.335Z,18.1
2024-05-09T05:13:01.351Z,18.2
2024-05-09T05:14:01.393Z,18.1
2024-05-09T05:15:01.232Z,18.2
2024-05-09T05:16:01.281Z,18.1
2024-05-09T05:17:01.307Z,18.2
2024-05-09T05:18:01.445Z,18.1
2024-05-09T05:20:01.503Z,18.1
2024-05-09T05:21:01.320Z,18.2
2024-05-09T05:22:01.345Z,18.2
2024-05-09T05:23:01.434Z,18.2
2024-05-09T05:24:01.256Z,18.2
2024-05-09T05:25:01.315Z,18.2
2024-05-09T05:27:01.238Z,18.2
2024-05-09T05:28:01.300Z,18.2
2024-05-09T05:29:01.340Z,18.2
2024-05-09T05:30:01.310Z,18.2
2024-05-09T05:31:01.299Z,18.3
2024-05-09T05:32:01.421Z,18.3
2024-05-09T05:33:01.498Z,18.3
2024-05-09T05:34:01.344Z,18.3
2024-05-09T05:35:01.392Z,18.3
2024-05-09T05:36:01.324Z,18.3
2024-05-09T05:37:01.279Z,18.3
2024-05-09T05:39:01.307Z,18.3
2024-05-09T05:40:01.277Z,18.3
2024-05-09T05:41:01.330Z,18.3
2024-05-09T05:42:01.340Z,18.3
2024-05-09T05:43:01.287Z,18.3
2024-05-09T05:44:01.360Z,18.3
2024-05-09T05:45:01.291Z,18.3
2024-05-09T05:46:01.261Z,18.3
2024-05-09T05:47:01.430Z,18.3
2024-05-09T05:49:01.369Z,18.2
2024-05-09T05:50:01.401Z,18.2
2024-05-09T05:51:04.432Z,18.1
2024-05-09T05:52:01.279Z,18.2
2024-05-09T05:53:01.357Z,18.2
2024-05-09T05:54:01.269Z,18.2
2024-05-09T05:55:01.281Z,18.2
2024-05-09T05:56:01.552Z,18.3
2024-05-09T05:57:01.310Z,18.3
2024-05-09T05:59:01.322Z,18.3
2024-05-09T06:00:01.279Z,18.2
2024-05-09T06:02:01.298Z,18.3
2024-05-09T06:03:01.459Z,18.3
2024-05-09T06:05:01.414Z,18.3
2024-05-09T06:06:01.326Z,18.3
2024-05-09T06:07:01.303Z,18.4
2024-05-09T06:08:01.410Z,18.4
2024-05-09T06:09:01.261Z,18.3
2024-05-09T06:10:01.308Z,18.3
2024-05-09T06:11:01.469Z,18.3
2024-05-09T06:12:01.504Z,18.2
2024-05-09T06:13:01.370Z,18.2
2024-05-09T06:14:01.396Z,18.2
2024-05-09T06:15:01.340Z,18.2
2024-05-09T06:16:01.306Z,18.2
2024-05-09T06:18:01.721Z,18.2
2024-05-09T06:19:01.383Z,18.3
2024-05-09T06:20:01.371Z,18.2
2024-05-09T06:21:01.503Z,18.2
2024-05-09T06:22:01.324Z,18.2
2024-05-09T06:23:01.371Z,18.2
2024-05-09T06:24:03.793Z,18.2
2024-05-09T06:25:01.387Z,18.2
2024-05-09T06:26:01.351Z,18.1
2024-05-09T06:27:01.350Z,18.2
2024-05-09T06:29:01.529Z,18.2
2024-05-09T06:31:01.337Z,18.2
2024-05-09T06:32:01.448Z,18.3
2024-05-09T06:33:01.551Z,18.3
2024-05-09T06:34:01.530Z,18.3
2024-05-09T06:35:01.322Z,18.3
2024-05-09T06:36:01.392Z,18.3
2024-05-09T06:38:01.706Z,18.3
2024-05-09T06:39:01.318Z,18.3
2024-05-09T06:40:01.303Z,18.3
2024-05-09T06:41:01.433Z,18.3
2024-05-09T06:42:01.303Z,18.3
2024-05-09T06:43:01.305Z,18.3
2024-05-09T06:45:01.371Z,18.3
2024-05-09T06:46:01.333Z,18.3
2024-05-09T06:47:01.406Z,18.2
2024-05-09T06:48:01.516Z,18.2
2024-05-09T06:49:01.493Z,18.2
2024-05-09T06:50:01.479Z,18.2
2024-05-09T06:52:01.351Z,18.3
2024-05-09T06:53:01.355Z,18.1
2024-05-09T06:54:01.353Z,18.2
2024-05-09T06:56:01.416Z,18.2
2024-05-09T06:57:01.372Z,18.3
2024-05-09T06:58:01.353Z,18.3
2024-05-09T06:59:01.382Z,18.4
2024-05-09T07:00:01.379Z,18.4
2024-05-09T07:01:01.411Z,18.3
2024-05-09T07:03:05.610Z,18.4
2024-05-09T07:04:01.506Z,18.3
2024-05-09T07:05:01.625Z,18.3
2024-05-09T07:06:01.468Z,18.3
2024-05-09T07:07:01.362Z,18.3
2024-05-09T07:08:01.401Z,18.3
2024-05-09T07:10:01.354Z,18.3
2024-05-09T07:12:01.520Z,18.3
2024-05-09T07:13:01.395Z,18.4
2024-05-09T07:14:01.383Z,18.4
2024-05-09T07:15:01.350Z,18.4
2024-05-09T07:17:05.592Z,18.4
2024-05-09T07:18:01.891Z,18.4
2024-05-09T07:19:01.558Z,18.3
2024-05-09T07:20:01.496Z,18.3
2024-05-09T07:21:01.616Z,18.3
2024-05-09T07:22:01.333Z,18.3
2024-05-09T07:23:01.774Z,18.3
2024-05-09T07:24:01.392Z,18.3
2024-05-09T07:25:01.363Z,18.3
2024-05-09T07:26:01.461Z,18.3
2024-05-09T07:27:01.420Z,18.3
2024-05-09T07:29:01.443Z,18.3
2024-05-09T07:30:01.406Z,18.3
2024-05-09T07:31:01.380Z,18.3
2024-05-09T07:32:01.488Z,18.3
2024-05-09T07:33:02.281Z,18.3
2024-05-09T07:35:01.462Z,18.2
2024-05-09T07:36:01.398Z,18.2
2024-05-09T07:37:01.403Z,18.2
2024-05-09T07:39:01.362Z,18.3
2024-05-09T07:40:01.438Z,18.2
2024-05-09T07:41:01.411Z,18.2
2024-05-09T07:43:01.511Z,18.3
2024-05-09T07:46:48.255Z,18.3
2024-05-09T07:50:35.983Z,18.3
2024-05-09T07:51:48.234Z,18.3
2024-05-09T07:53:07.635Z,18.3
2024-05-09T07:53:24.973Z,18.3
2024-05-09T07:53:35.999Z,18.3
2024-05-09T07:54:02.078Z,18.3
2024-05-09T07:55:01.696Z,18.2
2024-05-09T07:56:01.706Z,18.1
2024-05-09T07:57:01.575Z,18.1
2024-05-09T07:59:01.379Z,18.1
2024-05-09T08:00:01.385Z,18.2
2024-05-09T08:01:01.508Z,18.1
2024-05-09T08:03:01.508Z,18.2
2024-05-09T08:05:01.714Z,18.2
2024-05-09T08:06:01.427Z,18.2
2024-05-09T08:07:01.453Z,18.2
2024-05-09T08:08:01.397Z,18.2
2024-05-09T08:10:01.451Z,18.2
2024-05-09T08:12:01.404Z,18.2
2024-05-09T08:13:01.492Z,18.2
2024-05-09T08:15:01.419Z,18.2
2024-05-09T08:16:01.611Z,18.2
2024-05-09T08:17:01.414Z,18.2
2024-05-09T08:18:01.656Z,18.3
2024-05-09T08:19:01.553Z,18.3
2024-05-09T08:20:03.693Z,18.3
2024-05-09T08:21:01.404Z,18.3
2024-05-09T08:22:01.450Z,18.3
2024-05-09T08:23:01.402Z,18.3
2024-05-09T08:24:01.440Z,18.3
2024-05-09T08:25:01.514Z,18.3
2024-05-09T08:26:01.445Z,18.3
2024-05-09T08:27:01.424Z,18.3
2024-05-09T08:29:01.403Z,18.2
2024-05-09T08:30:01.515Z,18.2
2024-05-09T08:32:01.551Z,18.3
2024-05-09T08:33:01.507Z,18.3
2024-05-09T08:34:01.602Z,18.3
2024-05-09T08:35:01.525Z,18.3
2024-05-09T08:36:01.403Z,18.3
2024-05-09T08:38:01.705Z,18.3
2024-05-09T08:40:01.522Z,18.3
2024-05-09T08:41:01.446Z,18.2
2024-05-09T08:43:01.531Z,18.2
2024-05-09T08:44:01.469Z,18.3
2024-05-09T08:46:01.544Z,18.2
2024-05-09T08:47:01.401Z,18.3
2024-05-09T08:48:01.708Z,18.4
2024-05-09T08:49:01.710Z,18.3
2024-05-09T08:50:01.719Z,18.4
2024-05-09T08:51:01.439Z,18.3
2024-05-09T08:52:01.560Z,18.3
2024-05-09T08:54:01.385Z,18.2
2024-05-09T08:55:01.513Z,18.2
2024-05-09T08:56:01.464Z,18.1
2024-05-09T08:58:01.521Z,18.2
2024-05-09T08:59:01.416Z,18.3
2024-05-09T09:00:01.408Z,18.3
2024-05-09T09:01:01.626Z,18.3
2024-05-09T09:03:01.495Z,18.4
2024-05-09T09:04:01.650Z,18.4
2024-05-09T09:05:01.507Z,18.3
2024-05-09T09:06:01.472Z,18.4
2024-05-09T09:07:03.454Z,18.3
2024-05-09T09:08:01.431Z,18.3
2024-05-09T09:09:01.480Z,18.4
2024-05-09T09:11:01.470Z,18.5
2024-05-09T09:12:01.533Z,18.5
2024-05-09T09:13:01.548Z,18.5
2024-05-09T09:14:01.512Z,18.5
2024-05-09T09:15:01.467Z,18.5
2024-05-09T09:16:01.577Z,18.6
2024-05-09T09:18:01.726Z,18.6
2024-05-09T09:19:01.552Z,18.5
2024-05-09T09:21:01.504Z,18.5
2024-05-09T09:22:01.588Z,18.6
2024-05-09T09:23:01.458Z,18.6
2024-05-09T09:24:01.452Z,18.6
2024-05-09T09:25:01.568Z,18.6
2024-05-09T09:27:01.436Z,18.6
2024-05-09T09:28:01.512Z,18.5
2024-05-09T09:30:01.445Z,18.5
2024-05-09T09:31:01.575Z,18.5
2024-05-09T09:32:01.442Z,18.5
2024-05-09T09:33:01.569Z,18.5
2024-05-09T09:34:01.775Z,18.5
2024-05-09T09:35:01.675Z,18.5
2024-05-09T09:36:01.469Z,18.5
2024-05-09T09:37:01.588Z,18.5
2024-05-09T09:38:01.438Z,18.5
2024-05-09T09:39:01.475Z,18.5
2024-05-09T09:40:01.604Z,18.4
2024-05-09T09:41:01.742Z,18.4
2024-05-09T09:42:01.513Z,18.4
2024-05-09T09:43:01.646Z,18.4
2024-05-09T09:45:05.129Z,18.4
2024-05-09T09:46:01.561Z,18.4
2024-05-09T09:47:01.600Z,18.4
2024-05-09T09:48:01.562Z,18.4
2024-05-09T09:49:01.574Z,18.4
2024-05-09T09:51:01.464Z,18.4
2024-05-09T09:53:01.478Z,18.3
2024-05-09T09:54:01.461Z,18.3
2024-05-09T09:57:01.485Z,18.4
2024-05-09T09:59:01.472Z,18.3
2024-05-09T10:00:01.528Z,18.4
2024-05-09T10:01:01.742Z,18.4
2024-05-09T10:03:01.939Z,18.5
2024-05-09T10:04:01.601Z,18.3
2024-05-09T10:05:01.727Z,18.4
2024-05-09T10:06:01.620Z,18.4
2024-05-09T10:09:01.542Z,18.4
2024-05-09T10:10:01.563Z,18.4
2024-05-09T10:11:01.571Z,18.4
2024-05-09T10:13:01.641Z,18.4
2024-05-09T10:14:01.547Z,18.4
2024-05-09T10:15:01.519Z,18.4
2024-05-09T10:16:01.626Z,18.4
2024-05-09T10:17:01.537Z,18.4
2024-05-09T10:18:01.604Z,18.4
2024-05-09T10:20:01.551Z,18.4
2024-05-09T10:21:01.465Z,18.4
2024-05-09T10:22:01.536Z,18.4
2024-05-09T10:24:01.554Z,18.4
2024-05-09T10:25:03.575Z,18.4
2024-05-09T10:26:01.696Z,18.4
2024-05-09T10:28:01.598Z,18.5
2024-05-09T10:29:01.497Z,18.4
2024-05-09T10:30:01.500Z,18.4
2024-05-09T10:31:01.580Z,18.4
2024-05-09T10:33:01.623Z,18.4
2024-05-09T10:34:01.689Z,18.4
2024-05-09T10:35:01.681Z,18.4
2024-05-09T10:36:01.517Z,18.4
2024-05-09T10:37:02.784Z,18.4
2024-05-09T10:38:01.498Z,18.4
2024-05-09T10:39:01.504Z,18.4
2024-05-09T10:41:01.508Z,18.4
2024-05-09T10:43:04.465Z,18.4
2024-05-09T10:44:01.502Z,18.5
2024-05-09T10:45:01.497Z,18.4
2024-05-09T10:47:01.508Z,18.4
2024-05-09T10:48:01.649Z,18.5
2024-05-09T10:49:05.318Z,18.4
2024-05-09T10:51:01.522Z,18.4
2024-05-09T10:52:01.537Z,18.5
2024-05-09T10:53:01.496Z,18.4
2024-05-09T10:54:01.485Z,18.4
2024-05-09T10:55:04.826Z,18.5
2024-05-09T10:56:01.574Z,18.4
2024-05-09T10:57:01.520Z,18.4
2024-05-09T10:59:01.566Z,18.5
2024-05-09T11:01:05.451Z,18.4
2024-05-09T11:03:01.649Z,18.5
2024-05-09T11:04:01.740Z,18.5
2024-05-09T11:05:01.751Z,18.5
2024-05-09T11:07:04.685Z,18.5
2024-05-09T11:08:01.506Z,18.5
2024-05-09T11:09:01.556Z,18.5
2024-05-09T11:11:01.579Z,18.5
2024-05-09T11:12:01.653Z,18.5
2024-05-09T11:14:01.497Z,18.5
2024-05-09T11:15:01.517Z,18.5
2024-05-09T11:16:01.762Z,18.5
2024-05-09T11:18:01.571Z,18.5
2024-05-09T11:19:01.723Z,18.5
2024-05-09T11:20:01.681Z,18.5
2024-05-09T11:21:01.537Z,18.5
2024-05-09T11:22:01.684Z,18.5
2024-05-09T11:24:01.539Z,18.5
2024-05-09T11:25:01.599Z,18.5
2024-05-09T11:26:01.508Z,18.5
2024-05-09T11:27:01.559Z,18.5
2024-05-09T11:28:01.658Z,18.5
2024-05-09T11:30:01.546Z,18.5
2024-05-09T11:31:01.549Z,18.5
2024-05-09T11:32:01.600Z,18.5
2024-05-09T11:34:01.550Z,18.5
2024-05-09T11:35:01.543Z,18.5
2024-05-09T11:37:01.609Z,18.5
2024-05-09T11:38:01.542Z,18.5
2024-05-09T11:40:01.582Z,18.5
2024-05-09T11:41:01.578Z,18.5
2024-05-09T11:43:01.786Z,18.5
2024-05-09T11:44:01.559Z,18.5
2024-05-09T11:45:01.564Z,18.5
2024-05-09T11:46:01.658Z,18.4
2024-05-09T11:48:01.721Z,18.4
2024-05-09T11:49:01.848Z,18.4
2024-05-09T11:51:01.575Z,18.5
2024-05-09T11:52:01.600Z,18.5
2024-05-09T11:53:01.580Z,18.5
2024-05-09T11:54:01.636Z,18.5
2024-05-09T11:56:01.647Z,18.5
2024-05-09T11:58:01.613Z,18.5
2024-05-09T11:59:01.576Z,18.4
2024-05-09T12:00:01.611Z,18.5
2024-05-09T12:02:01.701Z,18.5
2024-05-09T12:03:01.586Z,18.5
2024-05-09T12:04:01.919Z,18.5
2024-05-09T12:05:01.615Z,18.5
2024-05-09T12:06:01.596Z,18.6
2024-05-09T12:07:01.614Z,18.5
2024-05-09T12:08:01.710Z,18.5
2024-05-09T12:10:01.668Z,18.5
2024-05-09T12:11:01.790Z,18.5
2024-05-09T12:14:01.596Z,18.5
2024-05-09T12:15:01.618Z,18.5
2024-05-09T12:16:01.724Z,18.6
2024-05-09T12:17:01.612Z,18.5
2024-05-09T12:18:03.826Z,18.5
2024-05-09T12:19:01.735Z,18.6
2024-05-09T12:20:01.657Z,18.6
2024-05-09T12:22:01.653Z,18.5
2024-05-09T12:24:01.604Z,18.6
2024-05-09T12:25:01.694Z,18.5
2024-05-09T12:26:01.759Z,18.5
2024-05-09T12:27:01.625Z,18.5
2024-05-09T12:29:01.575Z,18.5
2024-05-09T12:30:01.589Z,18.5
2024-05-09T12:31:01.634Z,18.5
2024-05-09T12:32:01.642Z,18.5
2024-05-09T12:34:01.737Z,18.5
2024-05-09T12:35:01.589Z,18.6
2024-05-09T12:36:01.581Z,18.6
2024-05-09T12:38:01.633Z,18.6
2024-05-09T12:40:01.650Z,18.5
2024-05-09T12:42:01.582Z,18.6
2024-05-09T12:43:01.654Z,18.6
2024-05-09T12:44:01.651Z,18.6
2024-05-09T12:45:01.636Z,18.5
2024-05-09T12:47:01.584Z,18.6
2024-05-09T12:48:01.728Z,18.5
2024-05-09T12:49:01.807Z,18.5
2024-05-09T12:50:01.632Z,18.6
2024-05-09T12:51:01.615Z,18.6
2024-05-09T12:52:01.651Z,18.5
2024-05-09T12:53:02.345Z,18.5
2024-05-09T12:55:01.650Z,18.6
2024-05-09T12:56:03.177Z,18.5
2024-05-09T12:57:01.583Z,18.6
2024-05-09T12:58:01.651Z,18.6
2024-05-09T13:00:01.642Z,18.6
2024-05-09T13:01:01.727Z,18.5
2024-05-09T13:02:01.661Z,18.6
2024-05-09T13:03:02.000Z,18.6
2024-05-09T13:04:02.022Z,18.5
2024-05-09T13:06:01.585Z,18.5
2024-05-09T13:07:03.144Z,18.6
2024-05-09T13:09:01.722Z,18.7
2024-05-09T13:10:01.678Z,18.6
2024-05-09T13:11:01.637Z,18.6
2024-05-09T13:12:01.714Z,18.6
2024-05-09T13:13:02.222Z,18.7
2024-05-09T13:14:01.683Z,18.6
2024-05-09T13:16:01.757Z,18.6
2024-05-09T13:17:01.666Z,18.6
2024-05-09T13:19:01.640Z,18.6
2024-05-09T13:20:02.475Z,18.7
2024-05-09T13:21:01.663Z,18.6
2024-05-09T13:22:01.675Z,18.6
2024-05-09T13:23:01.761Z,18.6
2024-05-09T13:24:01.680Z,18.7
2024-05-09T13:26:01.700Z,18.6
2024-05-09T13:27:01.624Z,18.7
2024-05-09T13:28:01.869Z,18.7
2024-05-09T13:29:01.600Z,18.7
2024-05-09T13:30:01.677Z,18.6
2024-05-09T13:32:01.674Z,18.7
2024-05-09T13:33:01.720Z,18.6
2024-05-09T13:34:01.906Z,18.6
2024-05-09T13:36:01.652Z,18.7
2024-05-09T13:37:01.700Z,18.7
2024-05-09T13:39:01.611Z,18.7
2024-05-09T13:40:01.770Z,18.7
2024-05-09T13:41:01.659Z,18.8
2024-05-09T13:43:01.943Z,18.8
2024-05-09T13:44:01.643Z,18.7
2024-05-09T13:46:01.690Z,18.7
2024-05-09T13:47:01.652Z,18.7
2024-05-09T13:48:01.866Z,18.7
2024-05-09T13:49:01.743Z,18.7
2024-05-09T13:51:01.659Z,18.8
2024-05-09T13:53:01.965Z,18.8
2024-05-09T13:54:01.657Z,18.8
2024-05-09T13:55:01.686Z,18.8
2024-05-09T13:56:01.669Z,18.8
2024-05-09T13:57:01.659Z,18.9
2024-05-09T13:58:01.829Z,18.8
2024-05-09T13:59:01.652Z,18.8
2024-05-09T14:00:01.955Z,18.9
2024-05-09T14:01:01.831Z,19
2024-05-09T14:03:01.846Z,18.9
2024-05-09T14:04:01.878Z,18.9
2024-05-09T14:05:01.956Z,18.9
2024-05-09T14:06:01.756Z,19
2024-05-09T14:08:01.659Z,19.1
2024-05-09T14:09:01.721Z,19
2024-05-09T14:10:01.755Z,19
2024-05-09T14:12:01.682Z,19
2024-05-09T14:13:01.946Z,19
2024-05-09T14:14:01.690Z,18.9
2024-05-09T14:16:01.730Z,18.8
2024-05-09T14:17:01.752Z,18.8
2024-05-09T14:19:01.758Z,18.9
2024-05-09T14:20:01.950Z,18.9
2024-05-09T14:21:01.702Z,19
2024-05-09T14:22:01.738Z,19
2024-05-09T14:24:01.691Z,18.9
2024-05-09T14:25:01.824Z,18.8
2024-05-09T14:26:01.718Z,18.8
2024-05-09T14:28:01.800Z,18.8
2024-05-09T14:30:01.679Z,18.8
2024-05-09T14:31:01.696Z,18.8
2024-05-09T14:32:01.680Z,18.8
2024-05-09T14:33:01.907Z,18.8
2024-05-09T14:34:01.925Z,18.8
2024-05-09T14:36:01.711Z,18.9
2024-05-09T14:37:01.704Z,18.9
2024-05-09T14:38:01.738Z,18.9
2024-05-09T14:40:01.726Z,18.9
2024-05-09T14:41:01.702Z,18.9
2024-05-09T14:42:01.765Z,19
2024-05-09T14:44:01.708Z,18.9
2024-05-09T14:46:01.733Z,19
2024-05-09T14:47:01.761Z,18.9
2024-05-09T14:48:01.919Z,19
2024-05-09T14:50:01.721Z,19
2024-05-09T14:51:01.700Z,19
2024-05-09T14:52:01.807Z,19
2024-05-09T14:54:01.727Z,19
2024-05-09T14:56:01.708Z,19
2024-05-09T14:57:01.940Z,19
2024-05-09T14:58:01.735Z,19.1
2024-05-09T14:59:01.714Z,19.1
2024-05-09T15:00:02.094Z,19
2024-05-09T15:01:01.802Z,19
2024-05-09T15:03:03.625Z,19
2024-05-09T15:04:01.804Z,19.1
2024-05-09T15:05:01.920Z,19.1
2024-05-09T15:06:01.728Z,19.1
2024-05-09T15:07:01.747Z,19
2024-05-09T15:08:01.739Z,19
2024-05-09T15:09:01.795Z,19
2024-05-09T15:10:01.844Z,19
2024-05-09T15:11:01.929Z,19
2024-05-09T15:12:01.754Z,19.1
2024-05-09T15:13:01.842Z,19
2024-05-09T15:15:01.740Z,19
2024-05-09T15:16:01.767Z,19
2024-05-09T15:18:01.795Z,19.1
2024-05-09T15:19:01.844Z,19.3
2024-05-09T15:20:02.012Z,19.3
2024-05-09T15:22:01.878Z,19.1
2024-05-09T15:24:01.750Z,19.2
2024-05-09T15:25:01.753Z,19.1
2024-05-09T15:26:01.800Z,19
2024-05-09T15:27:01.727Z,19
2024-05-09T15:29:01.746Z,19
2024-05-09T15:30:01.766Z,18.9
2024-05-09T15:31:01.880Z,18.9
2024-05-09T15:32:01.775Z,18.9
2024-05-09T15:33:01.817Z,18.9
2024-05-09T15:34:01.936Z,18.8
2024-05-09T15:35:01.712Z,18.9
2024-05-09T15:36:01.752Z,18.8
2024-05-09T15:37:01.769Z,18.8
2024-05-09T15:38:01.721Z,18.8
2024-05-09T15:39:01.746Z,18.8
2024-05-09T15:40:01.787Z,18.8
2024-05-09T15:41:01.762Z,18.8
2024-05-09T15:43:01.844Z,18.8
2024-05-09T15:44:01.770Z,18.8
2024-05-09T15:46:01.930Z,18.8
2024-05-09T15:47:01.727Z,18.9
2024-05-09T15:48:01.880Z,18.8
2024-05-09T15:50:01.847Z,18.8
2024-05-09T15:52:01.883Z,18.8
2024-05-09T15:53:01.755Z,18.8
2024-05-09T15:54:01.730Z,18.9
2024-05-09T15:55:01.822Z,18.8
2024-05-09T15:56:01.920Z,18.8
2024-05-09T15:57:01.730Z,18.8
2024-05-09T15:58:02.017Z,18.8
2024-05-09T15:59:01.764Z,18.8
2024-05-09T16:00:01.730Z,18.8
2024-05-09T16:01:02.011Z,18.7
2024-05-09T16:02:01.834Z,18.8
2024-05-09T16:03:01.844Z,18.8
2024-05-09T16:05:01.989Z,18.8
2024-05-09T16:08:01.755Z,18.8
2024-05-09T16:09:01.763Z,18.6
2024-05-09T16:10:01.856Z,18.7
2024-05-09T16:12:01.848Z,18.7
2024-05-09T16:14:01.778Z,18.7
2024-05-09T16:15:01.791Z,18.8
2024-05-09T16:16:01.967Z,18.8
2024-05-09T16:19:01.939Z,18.7
2024-05-09T16:21:04.374Z,18.7
2024-05-09T16:23:01.786Z,18.7
2024-05-09T16:24:01.803Z,18.7
2024-05-09T16:25:01.824Z,18.7
2024-05-09T16:26:01.779Z,18.8
2024-05-09T16:27:01.773Z,18.8
2024-05-09T16:28:02.065Z,18.7
2024-05-09T16:29:01.802Z,18.7
2024-05-09T16:30:02.070Z,18.7
2024-05-09T16:31:01.806Z,18.7
2024-05-09T16:32:01.807Z,18.7
2024-05-09T16:33:02.006Z,18.8
2024-05-09T16:34:01.868Z,18.8
2024-05-09T16:35:01.829Z,18.7
2024-05-09T16:36:01.782Z,18.6
2024-05-09T16:37:01.808Z,18.7
2024-05-09T16:39:01.800Z,18.8
2024-05-09T16:41:01.919Z,18.7
2024-05-09T16:42:01.783Z,18.6
2024-05-09T16:43:01.894Z,18.6